Time;durP1;ratioP1;P1;durP2;ratioP2;P2;SDS_P1;SDS_P2;PMS_P1;PMS_P2;Temp;Humidity;BMP_temperature;BMP_pressure;BME280_temperature;BME280_humidity;BME280_pressure;Samples;Min_cycle;Max_cycle;Signal;HPM_P1;HPM_P2
2021/11/22 00:02:20;;;;;;;7.65;2.15;;;7.10;99.90;;;;;;4974890;28;20192;-78
2021/11/22 00:04:46;;;;;;;7.38;2.20;;;7.20;99.90;;;;;;4975760;28;20625;-78
2021/11/22 00:07:12;;;;;;;5.88;2.28;;;7.10;99.90;;;;;;4975705;28;20181;-77
2021/11/22 00:09:38;;;;;;;8.13;1.67;;;7.10;99.90;;;;;;4975760;28;20174;-78
2021/11/22 00:12:05;;;;;;;5.13;1.10;;;7.10;99.90;;;;;;4975960;28;20173;-78
2021/11/22 00:14:30;;;;;;;3.85;1.48;;;7.00;99.90;;;;;;4975917;28;20632;-78
2021/11/22 00:16:58;;;;;;;12.38;1.73;;;6.90;99.90;;;;;;4975778;28;20193;-78
2021/11/22 00:19:23;;;;;;;10.70;1.85;;;7.10;99.90;;;;;;4974650;28;20170;-77
2021/11/22 00:21:49;;;;;;;7.72;2.05;;;7.10;99.90;;;;;;4975759;28;20172;-78
2021/11/22 00:24:15;;;;;;;9.98;2.70;;;7.10;99.90;;;;;;4975458;28;20549;-79
2021/11/22 00:26:41;;;;;;;7.88;1.95;;;7.10;99.90;;;;;;4975572;28;20691;-79
2021/11/22 00:29:06;;;;;;;2.05;1.48;;;7.10;99.90;;;;;;4975571;28;20170;-79
2021/11/22 00:31:32;;;;;;;3.90;1.65;;;7.00;99.90;;;;;;4975692;28;20632;-79
2021/11/22 00:33:58;;;;;;;9.93;2.70;;;7.10;99.90;;;;;;4975441;28;20473;-79
2021/11/22 00:36:24;;;;;;;5.93;1.60;;;7.00;99.90;;;;;;4975317;28;20644;-79
2021/11/22 00:38:50;;;;;;;5.10;2.13;;;7.00;99.90;;;;;;4975491;28;20162;-78
2021/11/22 00:41:16;;;;;;;5.90;1.80;;;7.10;99.90;;;;;;4975670;28;20177;-78
2021/11/22 00:43:41;;;;;;;3.55;1.98;;;7.00;99.90;;;;;;4975638;28;20537;-78
2021/11/22 00:46:10;;;;;;;10.02;1.83;;;7.10;99.90;;;;;;4975314;28;20304;-78
2021/11/22 00:48:36;;;;;;;7.63;1.38;;;7.10;99.90;;;;;;4975577;28;20170;-78
2021/11/22 00:51:03;;;;;;;10.90;1.40;;;7.00;99.90;;;;;;4974115;28;20609;-80
2021/11/22 00:53:32;;;;;;;7.63;1.40;;;7.10;99.90;;;;;;4975492;28;20177;-79
2021/11/22 00:55:58;;;;;;;5.97;1.75;;;7.00;99.90;;;;;;4975113;28;20201;-78
2021/11/22 00:58:24;;;;;;;11.98;1.92;;;6.90;99.90;;;;;;4975198;28;20174;-79
2021/11/22 01:00:50;;;;;;;6.72;1.35;;;7.00;99.90;;;;;;4973676;28;20178;-79
2021/11/22 01:03:16;;;;;;;9.57;1.35;;;6.80;99.90;;;;;;4975288;28;20166;-80
2021/11/22 01:05:41;;;;;;;6.72;1.83;;;6.80;99.90;;;;;;4973297;28;20305;-78
2021/11/22 01:08:08;;;;;;;10.70;1.70;;;6.90;99.90;;;;;;4973601;28;20264;-79
2021/11/22 01:10:37;;;;;;;9.77;1.38;;;6.80;99.90;;;;;;4973781;28;20173;-79
2021/11/22 01:13:03;;;;;;;5.60;1.13;;;6.90;99.90;;;;;;4975119;28;20529;-78
2021/11/22 01:15:31;;;;;;;8.77;1.50;;;6.90;99.90;;;;;;4974682;28;20280;-78
2021/11/22 01:17:56;;;;;;;7.65;1.80;;;7.00;99.90;;;;;;4974729;28;20170;-77
2021/11/22 01:20:28;;;;;;;5.20;1.50;;;6.90;99.90;;;;;;4974746;28;20172;-78
2021/11/22 01:22:57;;;;;;;5.93;1.48;;;6.80;99.90;;;;;;4974778;28;20567;-78
2021/11/22 01:25:23;;;;;;;6.80;1.70;;;6.70;99.90;;;;;;4974368;28;20210;-78
2021/11/22 01:27:49;;;;;;;4.60;1.52;;;6.60;99.90;;;;;;4974605;28;20180;-78
2021/11/22 01:30:15;;;;;;;6.00;1.45;;;6.60;99.90;;;;;;4974688;28;20166;-78
2021/11/22 01:32:44;;;;;;;2.45;1.50;;;6.80;99.90;;;;;;4974298;28;20225;-78
2021/11/22 01:35:11;;;;;;;4.32;1.55;;;6.80;99.90;;;;;;4974372;28;20559;-78
2021/11/22 01:37:37;;;;;;;11.20;1.50;;;6.80;99.90;;;;;;4974584;28;20640;-78
2021/11/22 01:40:04;;;;;;;8.75;1.35;;;6.80;99.90;;;;;;4974423;28;20178;-78
2021/11/22 01:42:30;;;;;;;10.27;0.98;;;6.80;99.90;;;;;;4974617;28;20162;-79
2021/11/22 01:44:56;;;;;;;2.40;1.33;;;6.60;99.90;;;;;;4974095;28;20706;-79
2021/11/22 01:47:21;;;;;;;7.45;1.75;;;6.50;99.90;;;;;;4974413;28;20251;-78
2021/11/22 01:49:47;;;;;;;6.05;1.45;;;6.60;99.90;;;;;;4973979;28;20173;-78
2021/11/22 01:52:12;;;;;;;13.73;1.20;;;6.60;99.90;;;;;;4974467;28;20181;-78
2021/11/22 01:54:38;;;;;;;9.45;1.27;;;6.60;99.90;;;;;;4974005;28;20170;-79
2021/11/22 01:57:04;;;;;;;4.75;1.75;;;6.50;99.90;;;;;;4974004;28;20213;-78
2021/11/22 01:59:30;;;;;;;4.20;1.75;;;6.60;99.90;;;;;;4973816;28;20536;-78
2021/11/22 02:01:56;;;;;;;6.03;1.33;;;6.60;99.90;;;;;;4973847;28;20170;-78
2021/11/22 02:04:21;;;;;;;6.07;1.45;;;6.50;99.90;;;;;;4972547;28;20182;-78
2021/11/22 02:06:49;;;;;;;6.70;1.40;;;6.60;99.90;;;;;;4974043;28;20216;-78
2021/11/22 02:09:15;;;;;;;7.05;1.08;;;6.60;99.90;;;;;;4973908;28;20158;-78
2021/11/22 02:11:41;;;;;;;5.95;1.10;;;6.70;99.90;;;;;;4973827;28;20202;-78
2021/11/22 02:14:07;;;;;;;4.28;1.20;;;6.70;99.90;;;;;;4973973;28;20695;-79
2021/11/22 02:16:34;;;;;;;4.07;1.00;;;6.70;99.90;;;;;;4973712;28;20192;-78
2021/11/22 02:19:02;;;;;;;11.50;1.00;;;6.70;99.90;;;;;;4973129;28;20628;-78
2021/11/22 02:21:28;;;;;;;5.15;1.20;;;6.60;99.90;;;;;;4973509;28;20225;-78
2021/11/22 02:23:53;;;;;;;8.10;1.30;;;6.60;99.90;;;;;;4973542;28;20182;-78
2021/11/22 02:26:20;;;;;;;7.38;1.60;;;6.50;99.90;;;;;;4973730;28;20228;-78
2021/11/22 02:28:46;;;;;;;6.25;1.02;;;6.50;99.90;;;;;;4973864;28;20695;-78
2021/11/22 02:31:12;;;;;;;4.00;1.75;;;6.60;99.90;;;;;;4973711;28;20205;-78
2021/11/22 02:33:38;;;;;;;8.10;1.48;;;6.30;99.90;;;;;;4973763;28;20194;-77
2021/11/22 02:36:04;;;;;;;7.07;1.63;;;6.40;99.90;;;;;;4973535;28;20642;-77
2021/11/22 02:38:39;;;;;;;6.32;1.45;;;6.30;99.90;;;;;;4973747;28;20158;-77
2021/11/22 02:41:07;;;;;;;7.93;1.83;;;6.30;99.90;;;;;;4973193;28;20248;-77
2021/11/22 02:43:38;;;;;;;9.18;1.73;;;6.20;99.90;;;;;;4973443;28;20166;-78
2021/11/22 02:46:04;;;;;;;10.00;1.40;;;6.20;99.90;;;;;;4973290;28;20213;-78
2021/11/22 02:48:30;;;;;;;3.05;1.52;;;6.20;99.90;;;;;;4973561;28;20390;-78
2021/11/22 02:50:56;;;;;;;1.33;1.08;;;6.20;99.90;;;;;;4973722;28;20165;-77
2021/11/22 02:53:27;;;;;;;5.97;1.45;;;6.20;99.90;;;;;;4973630;28;20253;-78
2021/11/22 02:55:58;;;;;;;5.00;1.33;;;6.10;99.90;;;;;;4973587;28;20201;-78
2021/11/22 02:58:23;;;;;;;9.48;1.52;;;6.20;99.90;;;;;;4973391;28;20166;-78
2021/11/22 03:00:50;;;;;;;7.30;1.80;;;6.30;99.90;;;;;;4973234;28;20177;-77
2021/11/22 03:03:15;;;;;;;14.90;2.08;;;6.30;99.90;;;;;;4973220;28;20224;-77
2021/11/22 03:05:41;;;;;;;2.35;1.13;;;6.20;99.90;;;;;;4973084;28;20639;-77
2021/11/22 03:08:07;;;;;;;5.95;1.48;;;6.10;99.90;;;;;;4973055;28;20174;-77
2021/11/22 03:10:32;;;;;;;3.75;1.30;;;6.20;99.90;;;;;;4972795;28;20620;-77
2021/11/22 03:12:59;;;;;;;9.27;1.67;;;6.20;99.90;;;;;;4973135;28;20636;-78
2021/11/22 03:15:25;;;;;;;9.70;1.67;;;6.00;99.90;;;;;;4973035;28;20189;-78
2021/11/22 03:17:51;;;;;;;2.17;1.17;;;6.10;99.90;;;;;;4973482;28;20185;-78
2021/11/22 03:20:19;;;;;;;3.47;1.42;;;6.10;99.90;;;;;;4973232;28;20174;-78
2021/11/22 03:22:46;;;;;;;7.22;1.17;;;6.20;99.90;;;;;;4973160;28;20162;-78
2021/11/22 03:25:13;;;;;;;4.38;1.20;;;6.10;99.90;;;;;;4972956;28;20289;-78
2021/11/22 03:27:40;;;;;;;2.35;1.17;;;6.00;99.90;;;;;;4973436;28;20198;-77
2021/11/22 03:30:07;;;;;;;5.68;1.50;;;6.00;99.90;;;;;;4975688;28;20158;-77
2021/11/22 03:32:33;;;;;;;2.58;1.30;;;6.00;99.90;;;;;;4976787;28;20248;-78
2021/11/22 03:34:59;;;;;;;4.13;1.83;;;6.00;99.90;;;;;;4975438;28;20664;-77
2021/11/22 03:37:25;;;;;;;3.42;1.17;;;6.10;99.90;;;;;;4976902;28;20205;-77
2021/11/22 03:39:52;;;;;;;7.53;2.00;;;6.10;99.90;;;;;;4976786;28;20185;-78
2021/11/22 03:42:19;;;;;;;4.90;1.10;;;6.20;99.90;;;;;;4976432;28;20225;-77
2021/11/22 03:44:45;;;;;;;3.97;1.58;;;6.10;99.90;;;;;;4976220;28;20162;-77
2021/11/22 03:47:12;;;;;;;6.30;1.20;;;6.20;99.90;;;;;;4976332;28;20599;-78
2021/11/22 03:49:38;;;;;;;6.03;1.73;;;6.30;99.90;;;;;;4976733;28;20192;-78
2021/11/22 03:52:05;;;;;;;1.75;1.20;;;6.10;99.90;;;;;;4976221;28;20166;-78
2021/11/22 03:54:31;;;;;;;5.70;1.33;;;6.00;99.90;;;;;;4976114;28;20199;-77
2021/11/22 03:56:56;;;;;;;2.22;1.00;;;6.10;99.90;;;;;;4976114;28;20542;-78
2021/11/22 03:59:22;;;;;;;12.05;1.27;;;6.00;99.90;;;;;;4975940;28;20181;-78
2021/11/22 04:01:48;;;;;;;2.88;1.10;;;6.00;99.90;;;;;;4976199;28;20180;-78
2021/11/22 04:04:14;;;;;;;2.35;1.23;;;6.00;99.90;;;;;;4976271;28;20165;-78
2021/11/22 04:06:40;;;;;;;6.30;1.08;;;5.90;99.90;;;;;;4974534;28;20232;-78
2021/11/22 04:09:06;;;;;;;4.55;1.10;;;5.80;99.90;;;;;;4976101;28;20181;-78
2021/11/22 04:11:35;;;;;;;6.63;1.42;;;5.90;99.90;;;;;;4974881;28;20246;-78
2021/11/22 04:14:03;;;;;;;2.58;1.05;;;5.90;99.90;;;;;;4975701;28;20174;-78
2021/11/22 04:16:29;;;;;;;16.95;2.25;;;5.80;99.90;;;;;;4975808;28;20194;-78
2021/11/22 04:18:54;;;;;;;3.65;1.10;;;5.80;99.90;;;;;;4975960;28;20220;-78
2021/11/22 04:21:23;;;;;;;6.30;1.00;;;6.00;99.90;;;;;;4975865;28;20520;-78
2021/11/22 04:23:52;;;;;;;4.60;1.45;;;6.00;99.90;;;;;;4975800;28;20251;-78
2021/11/22 04:26:18;;;;;;;3.90;0.95;;;5.90;99.90;;;;;;4975775;28;20216;-78
2021/11/22 04:28:46;;;;;;;5.75;1.50;;;6.00;99.90;;;;;;4975751;28;20519;-78
2021/11/22 04:31:12;;;;;;;7.55;1.40;;;5.90;99.90;;;;;;4975924;28;20591;-78
2021/11/22 04:33:38;;;;;;;6.65;1.30;;;5.90;99.90;;;;;;4975742;28;20245;-78
2021/11/22 04:36:06;;;;;;;6.20;1.63;;;6.00;99.90;;;;;;4974384;28;20240;-79
2021/11/22 04:38:32;;;;;;;2.78;1.10;;;6.00;99.90;;;;;;4975559;28;20162;-79
2021/11/22 04:40:57;;;;;;;2.42;1.45;;;5.90;99.90;;;;;;4975121;28;20186;-79
2021/11/22 04:43:23;;;;;;;13.70;1.60;;;5.90;99.90;;;;;;4975254;28;20166;-78
2021/11/22 04:45:49;;;;;;;2.85;1.20;;;5.90;99.90;;;;;;4974973;28;20570;-79
2021/11/22 04:48:14;;;;;;;5.68;1.40;;;5.90;99.90;;;;;;4975375;28;20170;-79
2021/11/22 04:50:40;;;;;;;7.88;1.20;;;6.00;99.90;;;;;;4975010;28;20169;-79
2021/11/22 04:53:06;;;;;;;1.42;1.30;;;5.80;99.90;;;;;;4975062;28;20216;-79
2021/11/22 04:55:32;;;;;;;6.57;1.55;;;5.80;99.90;;;;;;4975071;28;20185;-79
2021/11/22 04:57:58;;;;;;;4.38;1.27;;;5.70;99.90;;;;;;4975068;28;20174;-79
2021/11/22 05:00:25;;;;;;;4.75;1.17;;;5.60;99.90;;;;;;4975054;28;20174;-79
2021/11/22 05:02:51;;;;;;;5.45;1.20;;;5.60;99.90;;;;;;4975173;28;20170;-78
2021/11/22 05:05:18;;;;;;;9.70;1.63;;;5.60;99.90;;;;;;4975044;28;20201;-79
2021/11/22 05:07:45;;;;;;;6.85;1.25;;;5.70;99.90;;;;;;4957242;28;20574;-79
2021/11/22 05:10:11;;;;;;;2.47;1.17;;;5.70;99.90;;;;;;4974861;28;20663;-79
2021/11/22 05:12:38;;;;;;;6.40;1.25;;;5.80;99.90;;;;;;4975111;28;20162;-79
2021/11/22 05:15:05;;;;;;;2.90;1.23;;;5.80;99.90;;;;;;4973497;28;20182;-79
2021/11/22 05:17:31;;;;;;;5.90;1.27;;;5.90;99.90;;;;;;4973211;28;20586;-79
2021/11/22 05:19:56;;;;;;;3.17;1.00;;;5.80;99.90;;;;;;4974564;28;20190;-78
2021/11/22 05:22:24;;;;;;;3.70;1.30;;;5.80;99.90;;;;;;4974799;28;20174;-78
2021/11/22 05:24:50;;;;;;;7.30;1.65;;;5.70;99.90;;;;;;4974650;28;20244;-79
2021/11/22 05:27:24;;;;;;;4.35;2.90;;;5.80;99.90;;;;;;4974650;28;20300;-79
2021/11/22 05:29:50;;;;;;;8.35;2.25;;;5.80;99.90;;;;;;4973238;28;20174;-78
2021/11/22 05:32:17;;;;;;;1.38;1.25;;;5.70;99.90;;;;;;4974582;28;20632;-79
2021/11/22 05:34:45;;;;;;;4.63;1.38;;;5.60;99.90;;;;;;4974992;28;20643;-78
2021/11/22 05:37:10;;;;;;;2.38;1.05;;;5.70;99.90;;;;;;4974460;28;20170;-79
2021/11/22 05:39:37;;;;;;;3.33;1.73;;;5.90;99.90;;;;;;4973962;28;20177;-79
2021/11/22 05:42:03;;;;;;;2.70;1.85;;;5.80;99.90;;;;;;4974163;28;20253;-79
2021/11/22 05:44:31;;;;;;;1.55;1.15;;;5.70;99.90;;;;;;4974193;28;20166;-78
2021/11/22 05:46:57;;;;;;;3.38;0.90;;;5.70;99.90;;;;;;4974027;28;20209;-78
2021/11/22 05:49:23;;;;;;;6.25;1.15;;;5.60;99.90;;;;;;4974404;28;20170;-78
2021/11/22 05:51:49;;;;;;;8.30;1.42;;;5.70;99.90;;;;;;4974044;28;20173;-78
2021/11/22 05:54:15;;;;;;;9.85;1.80;;;5.70;99.90;;;;;;4973403;28;20157;-78
2021/11/22 05:56:42;;;;;;;4.82;1.73;;;5.80;99.90;;;;;;4974144;28;20194;-79
2021/11/22 05:59:08;;;;;;;7.78;1.30;;;5.50;99.90;;;;;;4974150;28;20162;-79
2021/11/22 06:01:34;;;;;;;5.03;1.55;;;5.40;99.90;;;;;;4972698;28;20201;-81
2021/11/22 06:03:59;;;;;;;1.92;1.35;;;5.60;99.90;;;;;;4973767;28;20201;-80
2021/11/22 06:06:25;;;;;;;5.45;2.22;;;5.60;99.90;;;;;;4973483;28;20296;-78
2021/11/22 06:08:51;;;;;;;5.18;1.30;;;5.50;99.90;;;;;;4972620;28;20166;-80
2021/11/22 06:11:16;;;;;;;4.50;1.55;;;5.60;99.90;;;;;;4973751;28;20217;-81
2021/11/22 06:13:42;;;;;;;3.40;1.38;;;5.50;99.90;;;;;;4973384;28;20216;-79
2021/11/22 06:16:08;;;;;;;8.38;2.28;;;5.60;99.90;;;;;;4973620;28;20252;-79
2021/11/22 06:18:33;;;;;;;5.43;1.83;;;5.70;99.90;;;;;;4973977;28;20257;-85
2021/11/22 06:20:59;;;;;;;2.75;1.60;;;5.40;99.90;;;;;;4973679;28;20534;-78
2021/11/22 06:23:25;;;;;;;4.53;1.33;;;5.30;99.90;;;;;;4973648;28;20597;-78
2021/11/22 06:25:51;;;;;;;6.82;1.73;;;5.50;99.90;;;;;;4973675;28;20220;-79
2021/11/22 06:28:16;;;;;;;13.23;2.30;;;5.70;99.90;;;;;;4972793;28;20540;-78
2021/11/22 06:30:42;;;;;;;3.72;1.88;;;5.80;99.90;;;;;;4971755;28;20178;-80
2021/11/22 06:33:08;;;;;;;3.03;1.92;;;5.90;99.90;;;;;;4973676;28;20162;-78
2021/11/22 06:35:36;;;;;;;1.45;1.35;;;6.10;99.90;;;;;;4973112;28;20190;-78
2021/11/22 06:38:01;;;;;;;3.67;1.80;;;6.00;99.90;;;;;;4973262;28;20231;-79
2021/11/22 06:40:27;;;;;;;8.30;2.38;;;5.80;99.90;;;;;;4973584;28;20165;-82
2021/11/22 06:42:53;;;;;;;6.63;2.42;;;5.80;99.90;;;;;;4973375;28;20166;-82
2021/11/22 06:45:19;;;;;;;4.88;1.70;;;6.20;99.90;;;;;;4974321;28;20212;-85
2021/11/22 06:47:45;;;;;;;3.50;2.03;;;6.30;99.90;;;;;;4974749;28;20517;-85
2021/11/22 06:50:11;;;;;;;4.35;1.77;;;6.40;99.90;;;;;;4972589;28;20185;-78
2021/11/22 06:52:37;;;;;;;4.78;1.60;;;6.50;99.90;;;;;;4971781;28;20190;-84
2021/11/22 06:55:04;;;;;;;2.35;1.70;;;6.60;99.90;;;;;;4973121;28;20192;-84
2021/11/22 06:57:30;;;;;;;7.00;2.03;;;6.50;99.90;;;;;;4973230;28;20185;-82
2021/11/22 06:59:56;;;;;;;4.88;2.00;;;6.50;99.90;;;;;;4972095;28;20548;-77
2021/11/22 07:02:24;;;;;;;7.93;2.15;;;6.40;99.90;;;;;;4973560;28;20225;-84
2021/11/22 07:04:50;;;;;;;6.80;2.00;;;6.50;99.90;;;;;;4973993;28;20170;-78
2021/11/22 07:07:16;;;;;;;5.05;1.60;;;6.50;99.90;;;;;;4976292;28;20198;-82
2021/11/22 07:09:44;;;;;;;11.68;2.30;;;6.30;99.90;;;;;;4976783;28;20177;-79
2021/11/22 07:12:10;;;;;;;5.25;2.10;;;6.20;99.90;;;;;;4976430;28;20178;-81
2021/11/22 07:14:38;;;;;;;10.95;2.33;;;6.30;99.90;;;;;;4976470;28;20166;-76
2021/11/22 07:17:04;;;;;;;7.28;2.08;;;6.40;99.90;;;;;;4976683;28;20166;-81
2021/11/22 07:19:30;;;;;;;12.13;2.05;;;6.20;99.90;;;;;;4976370;28;20628;-81
2021/11/22 07:22:00;;;;;;;7.18;2.38;;;6.10;99.90;;;;;;4976045;28;20176;-85
2021/11/22 07:24:26;;;;;;;4.82;1.95;;;6.10;99.90;;;;;;4976676;28;20181;-78
2021/11/22 07:26:52;;;;;;;4.40;2.28;;;6.10;99.90;;;;;;4976461;28;20599;-80
2021/11/22 07:29:17;;;;;;;3.70;2.13;;;6.40;99.90;;;;;;4967280;28;20527;-78
2021/11/22 07:31:43;;;;;;;6.15;2.92;;;6.40;99.90;;;;;;4968551;28;20727;-78
2021/11/22 07:34:10;;;;;;;9.15;2.38;;;6.50;99.90;;;;;;4976362;28;20229;-82
2021/11/22 07:36:36;;;;;;;6.10;2.45;;;6.30;99.90;;;;;;4976976;28;20225;-78
2021/11/22 07:39:01;;;;;;;6.28;2.40;;;6.40;99.90;;;;;;4960685;28;20206;-81
2021/11/22 07:41:27;;;;;;;5.28;1.98;;;6.50;99.90;;;;;;4955447;28;20241;-79
2021/11/22 07:43:53;;;;;;;10.57;2.22;;;6.50;99.90;;;;;;4956207;28;20178;-80
2021/11/22 07:46:19;;;;;;;5.50;2.28;;;6.60;99.90;;;;;;4956447;28;20210;-78
2021/11/22 07:48:44;;;;;;;4.47;2.55;;;6.70;99.90;;;;;;4957882;29;20178;-90
2021/11/22 07:51:10;;;;;;;8.82;2.30;;;6.50;99.90;;;;;;4959073;28;20234;-82
2021/11/22 07:53:38;;;;;;;14.38;2.88;;;6.60;99.90;;;;;;4957599;28;20186;-80
2021/11/22 07:56:04;;;;;;;6.13;2.90;;;6.40;99.90;;;;;;4956967;28;20186;-83
2021/11/22 07:58:30;;;;;;;4.45;2.55;;;6.40;99.90;;;;;;4956390;28;20178;-78
2021/11/22 08:00:56;;;;;;;7.88;2.53;;;6.10;99.90;;;;;;4956636;28;20205;-79
2021/11/22 08:03:22;;;;;;;3.65;2.33;;;6.10;99.90;;;;;;4956574;28;20186;-79
2021/11/22 08:05:51;;;;;;;6.75;2.97;;;6.20;99.90;;;;;;4956745;28;20210;-79
2021/11/22 08:08:16;;;;;;;11.40;3.45;;;6.30;99.90;;;;;;4956580;28;20241;-79
2021/11/22 08:10:46;;;;;;;4.95;2.80;;;6.60;99.90;;;;;;4956645;28;20466;-81
2021/11/22 08:13:12;;;;;;;3.42;2.97;;;6.50;99.90;;;;;;4960046;28;20178;-80
2021/11/22 08:15:39;;;;;;;6.00;3.13;;;6.50;99.90;;;;;;4956232;28;20198;-81
2021/11/22 08:18:07;;;;;;;4.35;2.80;;;6.40;99.90;;;;;;4956974;28;20261;-82
2021/11/22 08:20:34;;;;;;;3.05;2.75;;;6.40;99.90;;;;;;4959498;28;20162;-85
2021/11/22 08:23:00;;;;;;;4.38;2.28;;;6.30;99.90;;;;;;4959905;28;20183;-85
2021/11/22 08:25:28;;;;;;;6.43;3.38;;;6.30;99.90;;;;;;4957605;28;20212;-85
2021/11/22 08:27:55;;;;;;;13.35;3.42;;;6.30;99.90;;;;;;4958178;28;20233;-84
2021/11/22 08:30:23;;;;;;;5.70;2.90;;;6.30;99.90;;;;;;4961479;28;20265;-83
2021/11/22 08:32:50;;;;;;;3.10;2.80;;;6.40;99.90;;;;;;4955169;28;20171;-83
2021/11/22 08:35:18;;;;;;;5.15;3.10;;;6.50;99.90;;;;;;4955108;28;20222;-84
2021/11/22 08:37:44;;;;;;;9.13;2.83;;;6.50;99.90;;;;;;4955110;28;20190;-83
2021/11/22 08:40:13;;;;;;;6.05;3.33;;;6.30;99.90;;;;;;4955025;28;20170;-83
2021/11/22 08:42:38;;;;;;;14.07;3.30;;;6.30;99.90;;;;;;4956610;28;20185;-83
2021/11/22 08:45:05;;;;;;;6.88;3.55;;;6.40;99.90;;;;;;4954990;28;20194;-83
2021/11/22 08:47:31;;;;;;;6.50;2.83;;;6.30;99.90;;;;;;4956209;28;20190;-84
2021/11/22 08:49:57;;;;;;;4.43;3.35;;;6.30;99.90;;;;;;4955754;28;20171;-84
2021/11/22 08:52:25;;;;;;;9.50;3.60;;;6.50;99.90;;;;;;4955031;28;20321;-83
2021/11/22 08:54:51;;;;;;;7.18;3.17;;;6.50;99.90;;;;;;4955089;28;20198;-83
2021/11/22 08:57:17;;;;;;;10.80;3.45;;;6.10;99.90;;;;;;4954763;28;20625;-84
2021/11/22 08:59:44;;;;;;;4.60;3.55;;;6.10;99.90;;;;;;4954661;28;20175;-84
2021/11/22 09:02:11;;;;;;;12.38;3.13;;;6.20;99.90;;;;;;4954665;28;20261;-84
2021/11/22 09:04:37;;;;;;;4.47;3.03;;;6.00;99.90;;;;;;4954503;28;20194;-84
2021/11/22 09:07:03;;;;;;;4.13;3.13;;;5.90;99.90;;;;;;4955721;28;20536;-83
2021/11/22 09:09:29;;;;;;;6.60;3.00;;;5.90;99.90;;;;;;4956018;28;20174;-82
2021/11/22 09:11:55;;;;;;;11.13;3.00;;;6.20;99.90;;;;;;4954350;28;20170;-83
2021/11/22 09:14:21;;;;;;;4.00;2.95;;;6.20;99.90;;;;;;4954642;28;20544;-85
2021/11/22 09:16:47;;;;;;;15.30;3.15;;;6.30;99.90;;;;;;4954816;28;20269;-83
2021/11/22 09:19:14;;;;;;;5.00;2.90;;;6.20;99.90;;;;;;4956412;28;20625;-84
2021/11/22 09:21:39;;;;;;;6.72;2.65;;;6.20;99.90;;;;;;4955637;28;20178;-83
2021/11/22 09:24:06;;;;;;;9.40;3.28;;;6.10;99.90;;;;;;4954965;28;20236;-83
2021/11/22 09:26:32;;;;;;;7.70;3.25;;;6.10;99.90;;;;;;4955757;28;20261;-84
2021/11/22 09:28:58;;;;;;;2.60;2.40;;;6.20;99.90;;;;;;4956591;28;20512;-85
2021/11/22 09:31:24;;;;;;;6.10;2.40;;;6.10;99.90;;;;;;4955187;28;20177;-85
2021/11/22 09:33:52;;;;;;;5.10;2.70;;;6.10;99.90;;;;;;4954734;28;20166;-86
2021/11/22 09:36:19;;;;;;;8.90;3.22;;;6.20;99.90;;;;;;4954856;28;20245;-86
2021/11/22 09:38:45;;;;;;;5.05;3.22;;;6.40;99.90;;;;;;4955299;28;20202;-84
2021/11/22 09:41:12;;;;;;;10.18;3.08;;;6.50;99.90;;;;;;4958462;28;20165;-87
2021/11/22 09:43:44;;;;;;;4.05;2.67;;;6.60;99.90;;;;;;4955400;28;20169;-85
2021/11/22 09:46:10;;;;;;;3.20;2.75;;;6.90;99.90;;;;;;4953977;28;20210;-78
2021/11/22 09:48:36;;;;;;;5.78;2.95;;;6.60;99.90;;;;;;4954903;28;20245;-79
2021/11/22 09:51:02;;;;;;;7.57;2.35;;;6.50;99.90;;;;;;4954898;28;20257;-80
2021/11/22 09:53:28;;;;;;;12.57;2.67;;;6.40;99.90;;;;;;4955044;28;20234;-80
2021/11/22 09:55:54;;;;;;;11.60;2.75;;;6.50;99.90;;;;;;4954673;28;20624;-79
2021/11/22 09:58:20;;;;;;;8.93;2.60;;;6.60;99.90;;;;;;4954989;28;20171;-83
2021/11/22 10:00:51;;;;;;;17.17;3.03;;;6.70;99.90;;;;;;4954823;28;20198;-79
2021/11/22 10:03:22;;;;;;;6.32;2.22;;;6.60;99.90;;;;;;4954621;28;20700;-78
2021/11/22 10:05:59;;;;;;;4.95;2.28;;;6.70;99.90;;;;;;4954155;28;20731;-78
2021/11/22 10:08:26;;;;;;;5.60;2.60;;;6.70;99.90;;;;;;4954693;28;20178;-79
2021/11/22 10:10:58;;;;;;;5.65;2.30;;;6.70;99.90;;;;;;4954639;28;20175;-80
2021/11/22 10:13:23;;;;;;;3.38;2.20;;;6.70;99.90;;;;;;4954523;28;20194;-79
2021/11/22 10:15:52;;;;;;;3.60;2.20;;;6.70;99.90;;;;;;4954326;28;20218;-78
2021/11/22 10:18:45;;;;;;;9.82;2.45;;;6.70;99.90;;;;;;4954524;28;20173;-85
2021/11/22 10:21:13;;;;;;;17.65;3.30;;;6.80;99.90;;;;;;4947207;28;20620;-80
2021/11/22 10:23:42;;;;;;;2.58;1.77;;;6.70;99.90;;;;;;4954084;28;20192;-79
2021/11/22 10:26:10;;;;;;;3.05;1.90;;;6.60;99.90;;;;;;4954027;28;20224;-79
2021/11/22 10:28:42;;;;;;;6.30;1.95;;;6.80;99.90;;;;;;4954188;28;20174;-80
2021/11/22 10:31:22;;;;;;;2.75;1.70;;;6.80;99.90;;;;;;4954570;28;20175;-79
2021/11/22 10:33:50;;;;;;;7.45;1.92;;;6.70;99.90;;;;;;4954630;28;20167;-79
2021/11/22 10:36:22;;;;;;;4.47;1.92;;;6.70;99.90;;;;;;4953926;28;20182;-79
2021/11/22 10:38:59;;;;;;;2.53;1.85;;;6.80;99.90;;;;;;4953648;28;20166;-79
2021/11/22 10:41:32;;;;;;;4.03;1.70;;;7.00;99.90;;;;;;4954615;28;20174;-78
2021/11/22 10:44:06;;;;;;;4.40;1.75;;;7.20;99.90;;;;;;4954409;28;20167;-78
2021/11/22 10:46:40;;;;;;;9.45;2.13;;;7.30;99.90;;;;;;4954180;28;20241;-77
2021/11/22 10:49:11;;;;;;;4.75;1.38;;;7.40;99.90;;;;;;4955207;28;20185;-85
2021/11/22 10:51:42;;;;;;;4.03;1.55;;;7.40;99.90;;;;;;4955233;28;20633;-83
2021/11/22 10:54:10;;;;;;;9.13;2.13;;;7.30;99.90;;;;;;4952600;28;20178;-82
2021/11/22 10:56:42;;;;;;;5.40;1.63;;;7.30;99.90;;;;;;4962749;28;20198;-83
2021/11/22 10:59:17;;;;;;;2.95;1.13;;;7.30;99.90;;;;;;4952899;28;20638;-81
2021/11/22 11:01:52;;;;;;;11.55;1.60;;;7.30;99.90;;;;;;4957698;29;20537;-82
2021/11/22 11:04:23;;;;;;;3.08;0.90;;;7.40;99.90;;;;;;4953709;28;20173;-83
2021/11/22 11:06:53;;;;;;;5.78;1.10;;;7.40;99.90;;;;;;4975243;28;20214;-84
2021/11/22 11:09:31;;;;;;;18.13;1.48;;;7.40;99.90;;;;;;4970119;28;20170;-84
2021/11/22 11:12:13;;;;;;;11.30;2.13;;;7.50;99.90;;;;;;4967001;28;20199;-84
2021/11/22 11:14:40;;;;;;;12.55;1.77;;;7.60;99.90;;;;;;4988782;28;20170;-84
2021/11/22 11:17:14;;;;;;;6.45;1.20;;;7.60;99.90;;;;;;4989120;28;20713;-82
2021/11/22 11:19:41;;;;;;;2.75;1.15;;;7.50;99.90;;;;;;4988269;28;20283;-81
2021/11/22 11:22:07;;;;;;;12.68;1.48;;;7.60;99.90;;;;;;4987938;28;20162;-81
2021/11/22 11:24:34;;;;;;;8.90;1.13;;;7.70;99.90;;;;;;4972949;28;20530;-80
2021/11/22 11:27:00;;;;;;;2.53;1.20;;;7.80;99.90;;;;;;4972738;28;20216;-80
2021/11/22 11:29:26;;;;;;;1.05;0.90;;;7.80;99.90;;;;;;4973199;28;20162;-80
2021/11/22 11:31:51;;;;;;;1.38;0.80;;;7.80;99.90;;;;;;4972991;28;20182;-80
2021/11/22 11:34:17;;;;;;;2.80;1.33;;;7.80;99.90;;;;;;4972773;28;20172;-81
2021/11/22 11:37:18;;;;;;;4.43;0.93;;;7.80;99.90;;;;;;4971948;28;20182;-81
2021/11/22 11:40:22;;;;;;;4.25;1.40;;;7.90;99.90;;;;;;4972480;28;20169;-80
2021/11/22 11:42:54;;;;;;;1.33;1.10;;;7.90;99.90;;;;;;4972007;28;20632;-81
2021/11/22 11:45:55;;;;;;;1.17;0.90;;;7.80;99.90;;;;;;4987912;28;20288;-81
2021/11/22 11:48:45;;;;;;;11.10;0.57;;;7.80;99.90;;;;;;4945170;28;20657;-77
2021/11/22 11:51:16;;;;;;;5.68;1.98;;;7.90;99.90;;;;;;4973378;28;20181;-79
2021/11/22 11:54:04;;;;;;;11.45;1.00;;;7.90;99.90;;;;;;4975111;28;20723;-78
2021/11/22 11:56:47;;;;;;;1.15;1.00;;;7.90;99.90;;;;;;4976262;28;20241;-78
2021/11/22 11:59:49;;;;;;;2.45;0.70;;;7.90;99.90;;;;;;4974686;28;20525;-78
2021/11/22 12:02:22;;;;;;;0.98;0.80;;;8.00;99.90;;;;;;4916186;29;20212;-78
2021/11/22 12:04:48;;;;;;;3.90;1.10;;;8.00;99.90;;;;;;4966720;28;20182;-83
2021/11/22 12:07:45;;;;;;;2.00;0.80;;;8.00;99.90;;;;;;4975740;28;20206;-80
2021/11/22 12:10:15;;;;;;;11.23;0.77;;;7.90;99.90;;;;;;4974487;28;20258;-78
2021/11/22 12:12:43;;;;;;;3.22;0.80;;;7.90;99.90;;;;;;4974379;28;20158;-78
2021/11/22 12:15:24;;;;;;;1.23;0.90;;;8.00;99.90;;;;;;4975345;28;20275;-78
2021/11/22 12:18:07;;;;;;;4.47;1.10;;;8.00;99.90;;;;;;4975816;28;20174;-77
2021/11/22 12:20:36;;;;;;;1.10;0.93;;;8.10;99.90;;;;;;4975961;28;20173;-77
2021/11/22 12:23:07;;;;;;;1.70;0.80;;;8.20;99.90;;;;;;4975845;28;20212;-77
2021/11/22 12:25:39;;;;;;;2.10;1.17;;;8.40;99.90;;;;;;4974501;28;20202;-77
2021/11/22 12:28:13;;;;;;;1.00;0.85;;;8.40;99.90;;;;;;4975419;28;20174;-78
2021/11/22 12:30:44;;;;;;;3.03;1.35;;;8.30;99.90;;;;;;4975664;28;20646;-80
2021/11/22 12:33:25;;;;;;;2.70;1.08;;;8.40;99.90;;;;;;4975669;28;20177;-80
2021/11/22 12:35:55;;;;;;;1.73;1.10;;;8.50;99.90;;;;;;4975708;28;20193;-78
2021/11/22 12:38:25;;;;;;;2.75;0.98;;;8.40;99.90;;;;;;4990277;28;20174;-79
2021/11/22 12:40:53;;;;;;;0.77;0.77;;;8.20;99.90;;;;;;4975748;28;20249;-83
2021/11/22 12:43:44;;;;;;;3.63;1.10;;;8.30;99.90;;;;;;4975610;28;20158;-78
2021/11/22 12:46:13;;;;;;;16.35;1.35;;;8.40;99.90;;;;;;4990199;28;20308;-85
2021/11/22 12:48:42;;;;;;;1.55;1.15;;;8.40;99.90;;;;;;4975992;28;20550;-80
2021/11/22 12:51:12;;;;;;;7.05;1.15;;;8.30;99.90;;;;;;4975299;28;20501;-76
2021/11/22 12:53:41;;;;;;;9.05;0.90;;;8.30;99.90;;;;;;4975148;28;20198;-77
2021/11/22 12:56:09;;;;;;;3.78;0.80;;;8.50;99.90;;;;;;4974804;28;20185;-78
2021/11/22 12:58:36;;;;;;;0.82;0.70;;;8.60;99.90;;;;;;4975179;28;20217;-77
2021/11/22 13:01:04;;;;;;;5.47;1.10;;;8.60;99.90;;;;;;4974983;28;20173;-78